Dades meteomassalio
Diari Summary for Gener 18, 2018 Units:  Metric    English   Both
« Previous Day
Next Day »
Diari Semanal Mensual Anual Personalitzat
  Maxima: Minima: Mijana:
Temperatura: -17.8 °C -17.8 °C -14.4 °C
Rosada: -17.8 °C -19.6 °C -17.5 °C
Humitat: Humidity % 40 % 69 %
Velocitat del vent: 0 km/h 0 km/h 7.2 km/h
Racha vent: 0 km/h - -
Vent:- - WSW
Pressio: 0 hPa 34659.1 hPa -
Pluja: 0 mm    
Historical Graphs
 
 
Tabular Data for Gener 18, 2018
Time Temperature Dew Point Pressure Wind Wind Speed Wind Gust Humidity Rainfall Rate (Hourly) solar Conditions
-17.8 °C -17.8 °C 0 hPa Calm     Humidity % 0 mm SolarRadiationWatts/m^2 W/m2 Conditions
00:01 -13.4 °C -16 °C 34875.8 hPa West 17.9 km/h 17.9 km/h 73 % 0 mm 0.0 W/m2 CLR
00:06 -13.8 °C -16.3 °C 34875.8 hPa WSW 23.8 km/h 23.8 km/h 73 % 0 mm 0.0 W/m2 CLR
00:11 -13.4 °C -15.9 °C 34875.8 hPa Calm     74 % 0 mm 0.0 W/m2 CLR
00:16 -13.8 °C -16.2 °C 34875.8 hPa WNW 20.9 km/h 20.9 km/h 74 % 0 mm 0.0 W/m2 CLR
00:21 -14.1 °C -16.5 °C 34875.8 hPa NW 26.9 km/h 26.9 km/h 74 % 0 mm 0.0 W/m2 CLR
00:26 -14.1 °C -16.5 °C 34889.3 hPa WSW 18.2 km/h 18.2 km/h 74 % 0 mm 0.0 W/m2 CLR
00:31 -14.1 °C -16.5 °C 34889.3 hPa Calm     74 % 0 mm 0.0 W/m2 CLR
00:36 -14.1 °C -16.5 °C 34875.8 hPa WNW 15.6 km/h 15.6 km/h 74 % 0 mm 0.0 W/m2 CLR
00:41 -14.1 °C -16.3 °C 34889.3 hPa WSW 26.9 km/h 26.9 km/h 75 % 0 mm 0.0 W/m2 CLR
00:46 -13.8 °C -16.1 °C 34889.3 hPa WSW 23.8 km/h 23.8 km/h 75 % 0 mm 0.0 W/m2 CLR
00:51 -14.1 °C -16.3 °C 34875.8 hPa WNW 23.8 km/h 23.8 km/h 76 % 0 mm 0.0 W/m2 CLR
00:56 -14.1 °C -16.3 °C 34875.8 hPa West 20.8 km/h 20.8 km/h 75 % 0 mm 0.0 W/m2 CLR
01:01 -14.1 °C -16.3 °C 34889.3 hPa SW 17.9 km/h 17.9 km/h 75 % 0 mm 0.0 W/m2 CLR
01:06 -14.1 °C -16.3 °C 34889.3 hPa West 3.1 km/h   76 % 0 mm 0.0 W/m2 CLR
01:11 -13.8 °C -15.9 °C 34875.8 hPa WNW 26.9 km/h 26.9 km/h 76 % 0 mm 0.0 W/m2 CLR
01:16 -14.1 °C -16.3 °C 34875.8 hPa WNW 20.9 km/h 20.9 km/h 76 % 0 mm 0.0 W/m2 CLR
01:21 -14.1 °C -16.3 °C 34875.8 hPa West 26.9 km/h 26.9 km/h 76 % 0 mm 0.0 W/m2 CLR
01:26 -14.1 °C -16.3 °C 34875.8 hPa West 15.6 km/h 15.6 km/h 76 % 0 mm 0.0 W/m2 CLR
01:31 -14.1 °C -16.3 °C 34875.8 hPa West 15 km/h 15 km/h 76 % 0 mm 0.0 W/m2 CLR
01:36 -14.1 °C -16.2 °C 34875.8 hPa West 29.8 km/h 29.8 km/h 77 % 0 mm 0.0 W/m2 CLR
01:41 -14.4 °C -16.4 °C 34875.8 hPa NW 26.9 km/h 26.9 km/h 77 % 0 mm 0.0 W/m2 CLR
01:46 -14.7 °C -16.8 °C 34875.8 hPa WNW 31.1 km/h 31.1 km/h 77 % 0 mm 0.0 W/m2 CLR
01:47 -14.7 °C -16.8 °C 34875.8 hPa West 26.9 km/h 26.9 km/h 76 % 0 mm 0.0 W/m2 CLR
01:52 -14.4 °C -16.6 °C 34875.8 hPa West 23.8 km/h 23.8 km/h 76 % 0 mm 0.0 W/m2 CLR
01:57 -14.4 °C -16.4 °C 34875.8 hPa WNW 18.2 km/h 18.2 km/h 77 % 0 mm 0.0 W/m2 CLR
02:02 -14.7 °C -16.8 °C 34875.8 hPa WNW 23.8 km/h 23.8 km/h 77 % 0 mm 0.0 W/m2 CLR
02:07 -15 °C -17.1 °C 34875.8 hPa West 23.8 km/h 23.8 km/h 77 % 0 mm 0.0 W/m2 CLR
02:12 -15 °C -17.1 °C 34865.6 hPa WNW 23.8 km/h 23.8 km/h 77 % 0 mm 0.0 W/m2 CLR
02:17 -15 °C -16.9 °C 34865.6 hPa West 26.9 km/h 26.9 km/h 78 % 0 mm 0.0 W/m2 CLR
02:22 -15 °C -16.9 °C 34865.6 hPa WSW 26.9 km/h 26.9 km/h 78 % 0 mm 0.0 W/m2 CLR
02:27 -14.7 °C -16.8 °C 34865.6 hPa Calm     77 % 0 mm 0.0 W/m2 CLR
02:32 -15 °C -16.9 °C 34865.6 hPa WNW 25.9 km/h 25.9 km/h 78 % 0 mm 0.0 W/m2 CLR
02:37 -15 °C -16.9 °C 34865.6 hPa WNW 23.8 km/h 23.8 km/h 78 % 0 mm 0.0 W/m2 CLR
02:42 -15 °C -16.9 °C 34865.6 hPa West 29.8 km/h 29.8 km/h 78 % 0 mm 0.0 W/m2 CLR
02:47 -15 °C -17.1 °C 34865.6 hPa West 18.2 km/h 18.2 km/h 77 % 0 mm 0.0 W/m2 CLR
02:52 -15.3 °C -17.3 °C 34865.6 hPa West 23.3 km/h 23.3 km/h 77 % 0 mm 0.0 W/m2 CLR
02:57 -15.6 °C -17.4 °C 34865.6 hPa West 23.8 km/h 23.8 km/h 79 % 0 mm 0.0 W/m2 CLR
03:02 -15.3 °C -17.2 °C 34865.6 hPa West 29.8 km/h 29.8 km/h 79 % 0 mm 0.0 W/m2 CLR
03:07 -15.3 °C -17.3 °C 34865.6 hPa WNW 20.9 km/h 20.9 km/h 78 % 0 mm 0.0 W/m2 CLR
03:12 -15.3 °C -17.3 °C 34852.1 hPa West 25.9 km/h 25.9 km/h 78 % 0 mm 0.0 W/m2 CLR
03:17 -15.3 °C -17.3 °C 34852.1 hPa WNW 23.8 km/h 23.8 km/h 78 % 0 mm 0.0 W/m2 CLR
03:22 -15.6 °C -17.7 °C 34852.1 hPa NW 29.8 km/h 29.8 km/h 77 % 0 mm 0.0 W/m2 CLR
03:27 -15.3 °C -17.3 °C 34852.1 hPa West 23.8 km/h 23.8 km/h 77 % 0 mm 0.0 W/m2 CLR
03:32 -15 °C -16.9 °C 34852.1 hPa WNW 26.9 km/h 26.9 km/h 78 % 0 mm 0.0 W/m2 CLR
03:37 -15.3 °C -17.2 °C 34852.1 hPa WNW 29.8 km/h 29.8 km/h 79 % 0 mm 0.0 W/m2 CLR
03:42 -15.3 °C -17.3 °C 34841.9 hPa WNW 33.6 km/h 33.6 km/h 78 % 0 mm 0.0 W/m2 CLR
03:47 -15 °C -17.1 °C 34841.9 hPa West 35.7 km/h 35.7 km/h 77 % 0 mm 0.0 W/m2 CLR
03:52 -14.7 °C -16.8 °C 34852.1 hPa WSW 11.9 km/h 11.9 km/h 76 % 0 mm 0.0 W/m2 CLR
03:57 -14.7 °C -16.8 °C 34841.9 hPa WNW 25.9 km/h 25.9 km/h 77 % 0 mm 0.0 W/m2 CLR
04:02 -15 °C -16.9 °C 34831.8 hPa WNW 31.1 km/h 31.1 km/h 78 % 0 mm 0.0 W/m2 CLR
04:07 -15 °C -16.9 °C 34841.9 hPa WNW 20.9 km/h 20.9 km/h 78 % 0 mm 0.0 W/m2 CLR
04:12 -15 °C -16.9 °C 34831.8 hPa West 26.9 km/h 26.9 km/h 78 % 0 mm 0.0 W/m2 CLR
04:17 -15 °C -17.1 °C 34831.8 hPa WSW 26.9 km/h 26.9 km/h 77 % 0 mm 0.0 W/m2 CLR
04:22 -14.7 °C -16.8 °C 34831.8 hPa West 15 km/h 15 km/h 77 % 0 mm 0.0 W/m2 CLR
04:27 -15 °C -16.9 °C 34831.8 hPa WNW 23.8 km/h 23.8 km/h 78 % 0 mm 0.0 W/m2 CLR
04:32 -15.3 °C -17.3 °C 34831.8 hPa WNW 26.9 km/h 26.9 km/h 78 % 0 mm 0.0 W/m2 CLR
04:37 -15.6 °C -17.6 °C 34831.8 hPa West 17.9 km/h 17.9 km/h 78 % 0 mm 0.0 W/m2 CLR
04:42 -15.9 °C -17.9 °C 34831.8 hPa WNW 23.8 km/h 23.8 km/h 78 % 0 mm 0.0 W/m2 CLR
04:47 -16.2 °C -18.2 °C 34831.8 hPa WNW 20.9 km/h 20.9 km/h 78 % 0 mm 0.0 W/m2 CLR
04:52 -16.6 °C -18.6 °C 34831.8 hPa WNW 11.9 km/h 11.9 km/h 77 % 0 mm 0.0 W/m2 CLR
04:57 -16.6 °C -18.6 °C 34818.2 hPa WNW 26.9 km/h 26.9 km/h 77 % 0 mm 0.0 W/m2 CLR
05:02 -16.8 °C -18.8 °C 34818.2 hPa WNW 17.9 km/h 17.9 km/h 77 % 0 mm 0.0 W/m2 CLR
05:07 -16.8 °C -18.9 °C 34831.8 hPa Calm     76 % 0 mm 0.0 W/m2 CLR
05:12 -16.8 °C -18.9 °C 34818.2 hPa Calm     76 % 0 mm 0.0 W/m2 CLR
05:17 -16.8 °C -18.6 °C 34818.2 hPa Calm     80 % 0 mm 0.0 W/m2 CLR
05:22 -16.8 °C -18.8 °C 34831.8 hPa Calm     78 % 0 mm 0.0 W/m2 CLR
05:27 -17.2 °C -18.8 °C 34818.2 hPa Calm     80 % 0 mm 0.0 W/m2 CLR
05:32 -16.8 °C -18.4 °C 34818.2 hPa WNW 20.9 km/h 20.9 km/h 81 % 0 mm 0.0 W/m2 CLR
05:37 -16.8 °C -18.7 °C 34818.2 hPa WNW 29.8 km/h 29.8 km/h 79 % 0 mm 0.0 W/m2 CLR
05:42 -17.2 °C -19.2 °C 34818.2 hPa WNW 26.9 km/h 26.9 km/h 77 % 0 mm 0.0 W/m2 CLR
05:47 -17.2 °C -19.2 °C 34818.2 hPa West 23.8 km/h 23.8 km/h 77 % 0 mm 0.0 W/m2 CLR
05:52 -17.2 °C -19.2 °C 34818.2 hPa WNW 23.8 km/h 23.8 km/h 77 % 0 mm 0.0 W/m2 CLR
05:57 -17.2 °C -19.2 °C 34818.2 hPa WNW 29.8 km/h 29.8 km/h 77 % 0 mm 0.0 W/m2 CLR
06:02 -17.2 °C -19.2 °C 34818.2 hPa West 20.9 km/h 20.9 km/h 77 % 0 mm 0.0 W/m2 CLR
06:07 -17.2 °C -19.2 °C 34808.1 hPa West 9 km/h 9 km/h 77 % 0 mm 0.0 W/m2 CLR
06:12 -16.8 °C -18.8 °C 34808.1 hPa Calm     77 % 0 mm 0.0 W/m2 CLR
06:17 -16.6 °C -18.6 °C 34818.2 hPa Calm     77 % 0 mm 0.0 W/m2 CLR
06:22 -16.6 °C -18.4 °C 34818.2 hPa Calm   0.3 km/h 78 % 0 mm 0.0 W/m2 CLR
06:27 -16.6 °C -18.2 °C 34808.1 hPa WNW 26.9 km/h 26.9 km/h 81 % 0 mm 0.0 W/m2 CLR
06:32 -16.6 °C -18.4 °C 34808.1 hPa West 26.9 km/h 26.9 km/h 79 % 0 mm 0.0 W/m2 CLR
06:37 -16.6 °C -18.6 °C 34818.2 hPa Calm     77 % 0 mm 0.0 W/m2 CLR
06:42 -16.6 °C -18.6 °C 34818.2 hPa West 9 km/h 9 km/h 77 % 0 mm 0.0 W/m2 CLR
06:47 -16.6 °C -18.3 °C 34818.2 hPa WNW 15 km/h 15 km/h 80 % 0 mm 0.0 W/m2 CLR
06:52 -16.8 °C -18.8 °C 34818.2 hPa WNW 20.9 km/h 20.9 km/h 78 % 0 mm 0.0 W/m2 CLR
06:57 -16.8 °C -18.9 °C 34818.2 hPa WNW 17.9 km/h 17.9 km/h 76 % 0 mm 0.0 W/m2 CLR
07:02 -17.2 °C -19.3 °C 34818.2 hPa West 15 km/h 15 km/h 75 % 0 mm 0.0 W/m2 CLR
07:07 -17.2 °C -19.6 °C 34818.2 hPa Calm     73 % 0 mm 0.0 W/m2 CLR
07:12 -16.8 °C -18.9 °C 34818.2 hPa Calm     76 % 0 mm 0.0 W/m2 CLR
07:17 -16.6 °C -18.4 °C 34818.2 hPa Calm     78 % 0 mm 0.0 W/m2 CLR
07:22 -16.6 °C -18.3 °C 34818.2 hPa WSW 9 km/h 9 km/h 80 % 0 mm 0.0 W/m2 CLR
07:27 -16.8 °C -18.4 °C 34818.2 hPa WSW 9 km/h 9 km/h 81 % 0 mm 0.0 W/m2 CLR
07:32 -16.8 °C -18.4 °C 34818.2 hPa Calm     82 % 0 mm 0.0 W/m2 CLR
07:37 -17.2 °C -18.6 °C 34818.2 hPa Calm     83 % 0 mm 0.0 W/m2 CLR
07:42 -17.4 °C -18.9 °C 34818.2 hPa Calm     83 % 0 mm 0.0 W/m2 CLR
07:47 -17.4 °C -18.8 °C 34818.2 hPa Calm     84 % 0 mm 0.0 W/m2 CLR
07:52 -17.8 °C -19.1 °C 34818.2 hPa Calm     84 % 0 mm 0.0 W/m2 CLR
07:57 -17.8 °C -19.1 °C 34818.2 hPa Calm     84 % 0 mm 0.0 W/m2 CLR
08:02 -17.8 °C -19 °C 34818.2 hPa Calm     85 % 0 mm 0.0 W/m2 CLR
08:07 -17.8 °C -19 °C 34818.2 hPa Calm     85 % 0 mm 0.0 W/m2 CLR
08:12 -17.8 °C -19 °C 34818.2 hPa Calm     85 % 0 mm 0.0 W/m2 OVC
08:17 -17.8 °C -19 °C 34831.8 hPa Calm     85 % 0 mm 0.0 W/m2 OVC
08:22 -17.8 °C -19 °C 34831.8 hPa Calm     85 % 0 mm 5.0 W/m2 OVC
08:27 -17.4 °C -18.6 °C 34831.8 hPa Calm     86 % 0 mm 9.0 W/m2 BKN
08:33 -17.4 °C -18.6 °C 34831.8 hPa Calm     86 % 0 mm 11.0 W/m2 BKN
08:38 -17.4 °C -18.5 °C 34831.8 hPa Calm     87 % 0 mm 14.0 W/m2 BKN
08:43 -17.8 °C -18.8 °C 34831.8 hPa Calm     87 % 0 mm 16.0 W/m2 BKN
08:48 -17.4 °C -18.6 °C 34831.8 hPa Calm     86 % 0 mm 19.0 W/m2 BKN
08:53 -17.4 °C -18.6 °C 34831.8 hPa Calm     86 % 0 mm 23.0 W/m2 BKN
08:58 -17.2 °C -18.3 °C 34831.8 hPa Calm     86 % 0 mm 28.0 W/m2 BKN
09:03 -17.2 °C -18.3 °C 34831.8 hPa Calm     86 % 0 mm 42.0 W/m2 BKN
09:08 -17.4 °C -18.6 °C 34831.8 hPa Calm     86 % 0 mm 53.0 W/m2 SCT
09:13 -17.2 °C -18.4 °C 34831.8 hPa Calm     85 % 0 mm 62.0 W/m2 SCT
09:18 -17.2 °C -18.4 °C 34831.8 hPa Calm     85 % 0 mm 74.0 W/m2 FEW
09:23 -17.2 °C -18.4 °C 34831.8 hPa Calm     85 % 0 mm 86.0 W/m2 FEW
09:28 -17.2 °C -18.5 °C 34831.8 hPa Calm     84 % 0 mm 100.0 W/m2 FEW
09:33 -17.2 °C -18.5 °C 34831.8 hPa Calm     84 % 0 mm 114.0 W/m2 CLR
09:38 -17.2 °C -18.6 °C 34831.8 hPa Calm     83 % 0 mm 128.0 W/m2 CLR
09:43 -16.8 °C -18.4 °C 34831.8 hPa Calm     82 % 0 mm 144.0 W/m2 CLR
09:48 -16.8 °C -18.6 °C 34841.9 hPa Calm     80 % 0 mm 158.0 W/m2 CLR
09:53 -16.6 °C -18.3 °C 34841.9 hPa Calm     80 % 0 mm 176.0 W/m2 CLR
09:58 -16.2 °C -18.1 °C 34841.9 hPa Calm     79 % 0 mm 179.0 W/m2 CLR
10:03 -16.2 °C -18.2 °C 34841.9 hPa Calm     77 % 0 mm 142.0 W/m2 CLR
10:08 -15.9 °C -17.9 °C 34841.9 hPa Calm     78 % 0 mm 172.0 W/m2 CLR
10:13 -15.9 °C -18.1 °C 34841.9 hPa Calm     76 % 0 mm 181.0 W/m2 CLR
10:18 -15.6 °C -17.7 °C 34841.9 hPa Calm     76 % 0 mm 250.0 W/m2 CLR
10:23 -15.6 °C -17.9 °C 34841.9 hPa Calm     75 % 0 mm 262.0 W/m2 CLR
10:28 -15 °C -17.4 °C 34841.9 hPa Calm     74 % 0 mm 272.0 W/m2 CLR
10:33 -15 °C -17.4 °C 34841.9 hPa Calm     74 % 0 mm 287.0 W/m2 CLR
10:38 -14.4 °C -17 °C 34841.9 hPa Calm     72 % 0 mm 294.0 W/m2 CLR
10:43 -14.1 °C -16.7 °C 34841.9 hPa Calm     72 % 0 mm 271.0 W/m2 CLR
10:48 -13.8 °C -16.7 °C 34841.9 hPa Calm     69 % 0 mm 311.0 W/m2 CLR
10:53 -13.8 °C -16.7 °C 34841.9 hPa Calm     69 % 0 mm 330.0 W/m2 CLR
10:58 -13.4 °C -16.3 °C 34841.9 hPa Calm     70 % 0 mm 339.0 W/m2 CLR
11:03 -13.4 °C -16.6 °C 34841.9 hPa Calm     68 % 0 mm 350.0 W/m2 CLR
11:08 -13.2 °C -16.2 °C 34841.9 hPa Calm     68 % 0 mm 359.0 W/m2 CLR
11:13 -12.8 °C -16.2 °C 34841.9 hPa Calm     66 % 0 mm 367.0 W/m2 CLR
11:18 -12.8 °C -16.3 °C 34841.9 hPa Calm     65 % 0 mm 378.0 W/m2 CLR
11:23 -12.8 °C -16.4 °C 34841.9 hPa Calm     64 % 0 mm 385.0 W/m2 CLR
11:28 -12.6 °C -16.2 °C 34841.9 hPa Calm     64 % 0 mm 392.0 W/m2 CLR
11:33 -12.6 °C -16.3 °C 34841.9 hPa Calm     63 % 0 mm 399.0 W/m2 CLR
11:38 -12.6 °C -16.5 °C 34841.9 hPa Calm     61 % 0 mm 408.0 W/m2 CLR
11:43 -12.2 °C -16.3 °C 34841.9 hPa Calm     60 % 0 mm 417.0 W/m2 CLR
11:48 -12.2 °C -16.5 °C 34831.8 hPa Calm     59 % 0 mm 422.0 W/m2 CLR
11:53 -11.9 °C -16.7 °C 34818.2 hPa North 9 km/h 9 km/h 55 % 0 mm 427.0 W/m2 CLR
11:58 -11.9 °C -16.7 °C 34831.8 hPa NNW 9 km/h 9 km/h 55 % 0 mm 436.0 W/m2 CLR
12:03 -11.6 °C -16.4 °C 34831.8 hPa NNW 9 km/h 9 km/h 55 % 0 mm 441.0 W/m2 CLR
12:08 -11.6 °C -16.4 °C 34818.2 hPa NNW 2.6 km/h 2.6 km/h 55 % 0 mm 446.0 W/m2 CLR
12:13 -11.3 °C -16.3 °C 34818.2 hPa North 6 km/h 6 km/h 54 % 0 mm 452.0 W/m2 CLR
12:18 -11.3 °C -16.3 °C 34808.1 hPa NNW 6 km/h 6 km/h 54 % 0 mm 457.0 W/m2 CLR
12:23 -11.3 °C -16.4 °C 34808.1 hPa NW 6 km/h 6 km/h 53 % 0 mm 461.0 W/m2 CLR
12:28 -11 °C -16.2 °C 34808.1 hPa North 3.1 km/h 3.1 km/h 53 % 0 mm 464.0 W/m2 CLR
12:33 -11 °C -16.2 °C 34797.9 hPa Calm     53 % 0 mm 466.0 W/m2 CLR
12:38 -11 °C -16.3 °C 34797.9 hPa NNW 9 km/h 9 km/h 52 % 0 mm 471.0 W/m2 CLR
12:43 -11 °C -16.3 °C 34797.9 hPa Calm     52 % 0 mm 473.0 W/m2 CLR
12:48 -11 °C -16.3 °C 34784.4 hPa North 9 km/h 9 km/h 52 % 0 mm 476.0 W/m2 CLR
12:53 -11 °C -16.4 °C 34784.4 hPa NNE 9 km/h 9 km/h 51 % 0 mm 482.0 W/m2 CLR
12:58 -10.7 °C -16.3 °C 34784.4 hPa Calm     50 % 0 mm 464.0 W/m2 CLR
13:03 -10.7 °C -16.3 °C 34774.2 hPa North 9 km/h 9 km/h 50 % 0 mm 482.0 W/m2 CLR
13:08 -10.4 °C -16.1 °C 34774.2 hPa North 9 km/h 9 km/h 50 % 0 mm 482.0 W/m2 CLR
13:13 -10.4 °C -16.2 °C 34774.2 hPa NNW 9 km/h 9 km/h 49 % 0 mm 482.0 W/m2 CLR
13:18 -10.1 °C -16.1 °C 34760.7 hPa NNW 15 km/h 15 km/h 48 % 0 mm 480.0 W/m2 CLR
13:23 -10.1 °C -15.9 °C 34760.7 hPa NNW 9 km/h 9 km/h 49 % 0 mm 482.0 W/m2 CLR
13:28 -10.1 °C -16.2 °C 34760.7 hPa North 9 km/h 9 km/h 47 % 0 mm 480.0 W/m2 CLR
13:33 -9.8 °C -15.8 °C 34760.7 hPa North 6 km/h 6 km/h 48 % 0 mm 478.0 W/m2 CLR
13:38 -10.1 °C -16.1 °C 34750.5 hPa NE 11.9 km/h 11.9 km/h 48 % 0 mm 476.0 W/m2 CLR
13:43 -9.8 °C -15.8 °C 34750.5 hPa ENE 9 km/h 9 km/h 48 % 0 mm 473.0 W/m2 CLR
13:48 -10.1 °C -15.9 °C 34750.5 hPa NNE 15 km/h 15 km/h 49 % 0 mm 471.0 W/m2 CLR
13:53 -10.1 °C -15.9 °C 34740.4 hPa NE 9 km/h 9 km/h 49 % 0 mm 468.0 W/m2 CLR
13:58 -10.1 °C -15.8 °C 34740.4 hPa NE 9 km/h 9 km/h 50 % 0 mm 464.0 W/m2 CLR
14:03 -10.1 °C -15.8 °C 34740.4 hPa North 3.1 km/h 3.1 km/h 50 % 0 mm 461.0 W/m2 CLR
14:08 -10.1 °C -15.8 °C 34726.8 hPa NNE 9 km/h 9 km/h 50 % 0 mm 457.0 W/m2 CLR
14:13 -10.1 °C -15.6 °C 34726.8 hPa NNE 3.1 km/h 3.1 km/h 51 % 0 mm 461.0 W/m2 CLR
14:18 -10.1 °C -15.6 °C 34726.8 hPa NE 3.1 km/h 3.1 km/h 51 % 0 mm 448.0 W/m2 CLR
14:23 -9.8 °C -15.4 °C 34726.8 hPa NE 6 km/h 6 km/h 50 % 0 mm 432.0 W/m2 CLR
14:29 -10.1 °C -15.8 °C 34726.8 hPa North 15 km/h 15 km/h 50 % 0 mm 439.0 W/m2 CLR
14:34 -10.1 °C -15.8 °C 34716.7 hPa North 9 km/h 9 km/h 50 % 0 mm 422.0 W/m2 CLR
14:39 -10.1 °C -16.1 °C 34716.7 hPa Calm     48 % 0 mm 432.0 W/m2 CLR
14:44 -10.1 °C -15.9 °C 34716.7 hPa Calm     49 % 0 mm 425.0 W/m2 CLR
14:49 -10.1 °C -16.2 °C 34716.7 hPa NNE 9 km/h 9 km/h 47 % 0 mm 392.0 W/m2 CLR
14:54 -10.1 °C -16.2 °C 34716.7 hPa NNE 9 km/h 9 km/h 47 % 0 mm 371.0 W/m2 CLR
14:59 -10.1 °C -16.2 °C 34703.1 hPa ENE 6 km/h 6 km/h 47 % 0 mm 399.0 W/m2 CLR
15:04 -9.8 °C -15.8 °C 34703.1 hPa Calm   1.3 km/h 48 % 0 mm 388.0 W/m2 CLR
15:09 -9.8 °C -15.9 °C 34703.1 hPa Calm     47 % 0 mm 380.0 W/m2 CLR
15:14 -9.8 °C -15.9 °C 34693 hPa Calm     47 % 0 mm 371.0 W/m2 CLR
15:19 -9.8 °C -16.2 °C 34693 hPa Calm   0.5 km/h 46 % 0 mm 362.0 W/m2 CLR
15:24 -9.8 °C -16.2 °C 34693 hPa Calm     46 % 0 mm 352.0 W/m2 CLR
15:29 -9.4 °C -16 °C 34693 hPa Calm     45 % 0 mm 345.0 W/m2 CLR
15:34 -9.4 °C -16.4 °C 34693 hPa NNW 10.3 km/h 10.3 km/h 43 % 0 mm 330.0 W/m2 CLR
15:39 -9.4 °C -16.6 °C 34693 hPa NNW 9 km/h 9 km/h 42 % 0 mm 320.0 W/m2 CLR
15:44 -9.4 °C -16.8 °C 34693 hPa NW 9 km/h 9 km/h 41 % 0 mm 309.0 W/m2 CLR
15:49 -9.4 °C -16.9 °C 34682.8 hPa NNW 9 km/h 9 km/h 40 % 0 mm 299.0 W/m2 CLR
15:54 -9.4 °C -16.6 °C 34682.8 hPa NNW 11.9 km/h 11.9 km/h 42 % 0 mm 288.0 W/m2 CLR
15:59 -9.4 °C -16.6 °C 34682.8 hPa NNW 9 km/h 9 km/h 42 % 0 mm 274.0 W/m2 CLR
16:04 -9.4 °C -16.9 °C 34693 hPa NNW 9 km/h 9 km/h 40 % 0 mm 239.0 W/m2 CLR
16:09 -9.4 °C -16.4 °C 34682.8 hPa NNW 3.1 km/h 3.1 km/h 43 % 0 mm 239.0 W/m2 CLR
16:14 -9.4 °C -16.4 °C 34682.8 hPa NNW 9 km/h 9 km/h 43 % 0 mm 200.0 W/m2 CLR
16:19 -9.8 °C -16.8 °C 34682.8 hPa NNW 6 km/h 6 km/h 42 % 0 mm 216.0 W/m2 CLR
16:24 -9.8 °C -16.8 °C 34682.8 hPa NW 9 km/h 9 km/h 42 % 0 mm 202.0 W/m2 CLR
16:29 -10.1 °C -17.1 °C 34682.8 hPa NNW 3.1 km/h   42 % 0 mm 186.0 W/m2 CLR
16:34 -10.4 °C -17.1 °C 34682.8 hPa NE 6 km/h 6 km/h 44 % 0 mm 171.0 W/m2 CLR
16:39 -10.4 °C -16.9 °C 34682.8 hPa Calm     45 % 0 mm 153.0 W/m2 CLR
16:44 -10.7 °C -17 °C 34682.8 hPa Calm     46 % 0 mm 139.0 W/m2 CLR
16:49 -10.7 °C -17 °C 34682.8 hPa Calm     46 % 0 mm 125.0 W/m2 CLR
16:54 -11 °C -17.3 °C 34682.8 hPa Calm     46 % 0 mm 111.0 W/m2 CLR
16:59 -11 °C -17.1 °C 34682.8 hPa Calm     47 % 0 mm 98.0 W/m2 CLR
17:04 -11.3 °C -17.4 °C 34682.8 hPa Calm     47 % 0 mm 83.0 W/m2 FEW
17:09 -11.3 °C -17.2 °C 34682.8 hPa Calm     48 % 0 mm 63.0 W/m2 SCT
17:10 -11.3 °C -17.1 °C 34682.8 hPa Calm     49 % 0 mm 54.0 W/m2 SCT
17:15 -11.6 °C -17.3 °C 34682.8 hPa Calm     49 % 0 mm 53.0 W/m2 SCT
17:20 -11.9 °C -17.6 °C 34682.8 hPa Calm     49 % 0 mm 42.0 W/m2 SCT
17:25 -11.9 °C -17.4 °C 34682.8 hPa Calm     50 % 0 mm 32.0 W/m2 BKN
17:30 -12.2 °C -17.7 °C 34682.8 hPa Calm     50 % 0 mm 23.0 W/m2 BKN
17:35 -12.6 °C -18.2 °C 34682.8 hPa Calm     49 % 0 mm 16.0 W/m2 BKN
17:40 -12.8 °C -18.3 °C 34682.8 hPa Calm     50 % 0 mm 12.0 W/m2 BKN
17:45 -12.8 °C -18.3 °C 34682.8 hPa Calm     50 % 0 mm 11.0 W/m2 BKN
17:50 -13.2 °C -18.4 °C 34682.8 hPa Calm     51 % 0 mm 7.0 W/m2 BKN
17:55 -13.4 °C -18.6 °C 34682.8 hPa Calm     52 % 0 mm 5.0 W/m2 OVC
18:00 -13.4 °C -18.4 °C 34682.8 hPa Calm     53 % 0 mm 0.0 W/m2 CLR
18:05 -13.4 °C -18.2 °C 34682.8 hPa Calm     55 % 0 mm 0.0 W/m2 CLR
18:10 -13.8 °C -18.3 °C 34682.8 hPa Calm     56 % 0 mm 0.0 W/m2 CLR
18:15 -13.4 °C -17.8 °C 34669.3 hPa Calm     58 % 0 mm 0.0 W/m2 CLR
18:20 -13.4 °C -17.5 °C 34669.3 hPa Calm     60 % 0 mm 0.0 W/m2 CLR
18:25 -13.4 °C -17.4 °C 34669.3 hPa Calm     61 % 0 mm 0.0 W/m2 CLR
18:30 -13.8 °C -17.4 °C 34669.3 hPa Calm     63 % 0 mm 0.0 W/m2 CLR
18:35 -14.1 °C -17.6 °C 34669.3 hPa Calm     64 % 0 mm 0.0 W/m2 CLR
18:40 -14.1 °C -17.6 °C 34669.3 hPa Calm     64 % 0 mm 0.0 W/m2 CLR
18:45 -14.4 °C -17.7 °C 34682.8 hPa Calm     66 % 0 mm 0.0 W/m2 CLR
18:50 -14.7 °C -17.7 °C 34682.8 hPa Calm     68 % 0 mm 0.0 W/m2 CLR
18:55 -14.7 °C -17.6 °C 34682.8 hPa Calm     69 % 0 mm 0.0 W/m2 CLR
19:00 -14.7 °C -17.5 °C 34682.8 hPa Calm     70 % 0 mm 0.0 W/m2 CLR
19:05 -14.7 °C -17.4 °C 34682.8 hPa Calm     71 % 0 mm 0.0 W/m2 CLR
19:10 -14.7 °C -17.4 °C 34682.8 hPa Calm     71 % 0 mm 0.0 W/m2 CLR
19:15 -14.7 °C -17.3 °C 34682.8 hPa Calm     72 % 0 mm 0.0 W/m2 CLR
19:20 -14.7 °C -17.3 °C 34682.8 hPa Calm     72 % 0 mm 0.0 W/m2 CLR
19:25 -15 °C -17.4 °C 34682.8 hPa Calm     73 % 0 mm 0.0 W/m2 CLR
19:30 -15.3 °C -17.8 °C 34682.8 hPa Calm     73 % 0 mm 0.0 W/m2 CLR
19:35 -15.3 °C -17.7 °C 34682.8 hPa Calm     74 % 0 mm 0.0 W/m2 CLR
19:40 -15.3 °C -17.7 °C 34682.8 hPa Calm     74 % 0 mm 0.0 W/m2 CLR
19:46 -15.3 °C -17.6 °C 34669.3 hPa Calm     75 % 0 mm 0.0 W/m2 CLR
19:51 -15.3 °C -17.4 °C 34669.3 hPa Calm     76 % 0 mm 0.0 W/m2 CLR
19:56 -15.6 °C -17.7 °C 34669.3 hPa Calm     76 % 0 mm 0.0 W/m2 CLR
20:01 -15.6 °C -17.7 °C 34669.3 hPa Calm     76 % 0 mm 0.0 W/m2 CLR
20:06 -15.9 °C -18.1 °C 34682.8 hPa Calm     76 % 0 mm 0.0 W/m2 CLR
20:11 -15.9 °C -18.2 °C 34669.3 hPa Calm     75 % 0 mm 0.0 W/m2 CLR
20:16 -15.9 °C -18.2 °C 34669.3 hPa Calm     75 % 0 mm 0.0 W/m2 CLR
20:21 -15.9 °C -18.2 °C 34669.3 hPa Calm     75 % 0 mm 0.0 W/m2 CLR
20:26 -15.9 °C -17.9 °C 34669.3 hPa Calm     77 % 0 mm 0.0 W/m2 CLR
20:31 -15.9 °C -18.1 °C 34669.3 hPa Calm     76 % 0 mm 0.0 W/m2 CLR
20:36 -15.9 °C -18.1 °C 34669.3 hPa Calm     76 % 0 mm 0.0 W/m2 CLR
20:41 -15.9 °C -18.1 °C 34669.3 hPa Calm     76 % 0 mm 0.0 W/m2 CLR
20:46 -16.2 °C -18.4 °C 34682.8 hPa Calm     75 % 0 mm 0.0 W/m2 CLR
20:51 -16.2 °C -18.4 °C 34669.3 hPa Calm     75 % 0 mm 0.0 W/m2 CLR
20:56 -16.6 °C -18.7 °C 34669.3 hPa Calm     76 % 0 mm 0.0 W/m2 CLR
21:01 -16.6 °C -18.7 °C 34669.3 hPa Calm     76 % 0 mm 0.0 W/m2 CLR
21:06 -16.6 °C -18.7 °C 34669.3 hPa Calm     76 % 0 mm 0.0 W/m2 CLR
21:11 -16.6 °C -18.7 °C 34669.3 hPa Calm     76 % 0 mm 0.0 W/m2 CLR
21:16 -16.2 °C -18.4 °C 34669.3 hPa Calm     75 % 0 mm 0.0 W/m2 CLR
21:21 -16.2 °C -18.4 °C 34669.3 hPa Calm     75 % 0 mm 0.0 W/m2 CLR
21:26 -16.2 °C -18.6 °C 34682.8 hPa Calm     74 % 0 mm 0.0 W/m2 CLR
21:31 -16.2 °C -18.6 °C 34682.8 hPa Calm     74 % 0 mm 0.0 W/m2 CLR
21:36 -16.2 °C -18.6 °C 34669.3 hPa Calm     74 % 0 mm 0.0 W/m2 CLR
21:41 -16.2 °C -18.6 °C 34669.3 hPa Calm     74 % 0 mm 0.0 W/m2 CLR
21:47 -16.2 °C -18.4 °C 34669.3 hPa Calm     75 % 0 mm 0.0 W/m2 CLR
21:52 -16.2 °C -18.4 °C 34669.3 hPa Calm     76 % 0 mm 0.0 W/m2 CLR
21:57 -16.2 °C -18.4 °C 34669.3 hPa Calm     76 % 0 mm 0.0 W/m2 CLR
22:02 -16.6 °C -18.7 °C 34669.3 hPa Calm     76 % 0 mm 0.0 W/m2 CLR
22:07 -16.6 °C -18.6 °C 34669.3 hPa Calm     77 % 0 mm 0.0 W/m2 CLR
22:12 -16.6 °C -18.6 °C 34669.3 hPa Calm     77 % 0 mm 0.0 W/m2 CLR
22:17 -16.6 °C -18.6 °C 34669.3 hPa Calm     77 % 0 mm 0.0 W/m2 CLR
22:22 -16.6 °C -18.6 °C 34669.3 hPa Calm     77 % 0 mm 0.0 W/m2 CLR
22:27 -16.6 °C -18.7 °C 34659.1 hPa Calm     76 % 0 mm 0.0 W/m2 CLR
22:32 -16.2 °C -18.4 °C 34669.3 hPa Calm     75 % 0 mm 0.0 W/m2 CLR
22:37 -16.6 °C -18.7 °C 34659.1 hPa Calm     76 % 0 mm 0.0 W/m2 CLR
22:42 -16.6 °C -18.6 °C 34659.1 hPa Calm     77 % 0 mm 0.0 W/m2 CLR
22:47 -16.8 °C -18.8 °C 34659.1 hPa Calm     78 % 0 mm 0.0 W/m2 CLR
22:52 -16.8 °C -18.7 °C 34659.1 hPa Calm     79 % 0 mm 0.0 W/m2 CLR
22:57 -16.8 °C -18.7 °C 34659.1 hPa Calm     79 % 0 mm 0.0 W/m2 CLR
23:02 -16.8 °C -18.7 °C 34669.3 hPa Calm     79 % 0 mm 0.0 W/m2 CLR
23:07 -16.6 °C -18.3 °C 34659.1 hPa Calm     80 % 0 mm 0.0 W/m2 CLR
23:12 -16.6 °C -18.3 °C 34669.3 hPa Calm     80 % 0 mm 0.0 W/m2 CLR
23:17 -16.8 °C -18.6 °C 34669.3 hPa Calm     80 % 0 mm 0.0 W/m2 CLR
23:22 -16.8 °C -18.6 °C 34669.3 hPa Calm     80 % 0 mm 0.0 W/m2 CLR
23:27 -16.8 °C -18.4 °C 34669.3 hPa Calm     81 % 0 mm 0.0 W/m2 CLR
23:32 -16.8 °C -18.4 °C 34669.3 hPa Calm     81 % 0 mm 0.0 W/m2 CLR
23:37 -16.8 °C -18.4 °C 34669.3 hPa Calm     81 % 0 mm 0.0 W/m2 CLR
23:42 -16.8 °C -18.4 °C 34682.8 hPa Calm     81 % 0 mm 0.0 W/m2 CLR
23:47 -16.8 °C -18.4 °C 34682.8 hPa Calm     81 % 0 mm 0.0 W/m2 CLR
23:52 -16.8 °C -18.4 °C 34682.8 hPa Calm     82 % 0 mm 0.0 W/m2 CLR
23:57 -16.8 °C -18.4 °C 34682.8 hPa Calm     82 % 0 mm 0.0 W/m2 CLR
Lo Temps de Massalio
Compliments of Weather Underground - 1.25 mb